createdAt,value
2017-11-04T00:00:07.884Z,0.00
2017-11-04T00:01:07.858Z,0.00
2017-11-04T00:02:07.833Z,0.00
2017-11-04T00:03:07.807Z,0.00
2017-11-04T00:04:07.796Z,0.00
2017-11-04T00:05:07.752Z,0.00
2017-11-04T00:06:07.726Z,0.00
2017-11-04T00:07:07.704Z,0.00
2017-11-04T00:08:07.678Z,0.00
2017-11-04T00:09:07.651Z,0.00
2017-11-04T00:10:07.622Z,0.00
2017-11-04T00:11:07.594Z,0.00
2017-11-04T00:12:07.575Z,0.00
2017-11-04T00:13:07.545Z,0.00
2017-11-04T00:14:07.525Z,0.00
2017-11-04T00:15:07.491Z,0.00
2017-11-04T00:16:07.468Z,0.00
2017-11-04T00:17:07.437Z,0.00
2017-11-04T00:18:07.411Z,0.00
2017-11-04T00:19:07.390Z,0.00
2017-11-04T00:20:07.363Z,0.00
2017-11-04T00:21:07.331Z,0.00
2017-11-04T00:22:07.314Z,0.00
2017-11-04T00:23:07.284Z,0.00
2017-11-04T00:24:07.256Z,0.00
2017-11-04T00:25:07.232Z,0.00
2017-11-04T00:26:07.201Z,0.00
2017-11-04T00:27:07.177Z,0.00
2017-11-04T00:28:07.148Z,0.00
2017-11-04T00:29:07.124Z,0.00
2017-11-04T00:30:07.096Z,0.00
2017-11-04T00:31:07.069Z,0.00
2017-11-04T00:32:07.047Z,0.00
2017-11-04T00:33:07.024Z,0.00
2017-11-04T00:34:06.999Z,0.00
2017-11-04T00:35:06.965Z,0.00
2017-11-04T00:36:06.947Z,0.00
2017-11-04T00:37:06.925Z,0.00
2017-11-04T00:38:06.885Z,0.00
2017-11-04T00:39:07.158Z,0.00
2017-11-04T00:40:06.832Z,0.00
2017-11-04T00:41:06.808Z,0.00
2017-11-04T00:42:06.781Z,0.00
2017-11-04T00:43:06.764Z,0.00
2017-11-04T00:44:06.739Z,0.00
2017-11-04T00:45:06.999Z,0.00
2017-11-04T00:46:06.679Z,0.00
2017-11-04T00:47:06.647Z,0.00
2017-11-04T00:48:06.627Z,0.00
2017-11-04T00:49:06.602Z,0.00
2017-11-04T00:50:06.573Z,0.00
2017-11-04T00:51:06.797Z,0.00
2017-11-04T00:52:06.525Z,0.00
2017-11-04T00:53:06.503Z,0.00
2017-11-04T00:54:06.467Z,0.00
2017-11-04T00:55:06.445Z,0.00
2017-11-04T00:56:06.419Z,0.00
2017-11-04T00:57:06.379Z,0.00
2017-11-04T00:58:06.361Z,0.00
2017-11-04T00:59:06.328Z,0.00
2017-11-04T01:00:06.306Z,0.00
2017-11-04T01:01:06.283Z,0.00
2017-11-04T01:02:06.251Z,0.00
2017-11-04T01:03:06.478Z,0.00
2017-11-04T01:04:06.199Z,0.00
2017-11-04T01:05:06.168Z,0.00
2017-11-04T01:06:06.145Z,0.00
2017-11-04T01:07:06.119Z,0.00
2017-11-04T01:08:06.096Z,0.00
2017-11-04T01:09:06.064Z,0.00
2017-11-04T01:10:06.041Z,0.00
2017-11-04T01:11:06.007Z,0.00
2017-11-04T01:12:05.984Z,0.00
2017-11-04T01:13:05.960Z,0.00
2017-11-04T01:14:05.941Z,0.00
2017-11-04T01:15:05.905Z,0.00
2017-11-04T01:16:05.879Z,0.00
2017-11-04T01:17:05.845Z,0.00
2017-11-04T01:18:05.820Z,0.00
2017-11-04T01:19:05.791Z,0.00
2017-11-04T01:20:05.769Z,0.00
2017-11-04T01:21:06.040Z,0.00
2017-11-04T01:22:05.712Z,0.00
2017-11-04T01:23:05.691Z,0.00
2017-11-04T01:24:05.665Z,0.00
2017-11-04T01:25:05.631Z,0.00
2017-11-04T01:26:05.607Z,0.00
2017-11-04T01:27:05.831Z,0.00
2017-11-04T01:28:05.548Z,0.00
2017-11-04T01:29:05.536Z,0.00
2017-11-04T01:30:05.491Z,0.00
2017-11-04T01:31:05.468Z,0.00
2017-11-04T01:32:05.444Z,0.00
2017-11-04T01:33:05.424Z,0.00
2017-11-04T01:34:05.389Z,0.00
2017-11-04T01:35:05.359Z,0.00
2017-11-04T01:36:05.337Z,0.00
2017-11-04T01:37:05.306Z,0.00
2017-11-04T01:38:05.277Z,0.00
2017-11-04T01:39:05.258Z,0.00
2017-11-04T01:40:05.226Z,0.00
2017-11-04T01:41:05.199Z,0.00
2017-11-04T01:42:05.164Z,0.00
2017-11-04T01:43:05.144Z,0.00
2017-11-04T01:44:05.111Z,0.00
2017-11-04T01:45:05.086Z,0.00
2017-11-04T01:46:05.061Z,0.00
2017-11-04T01:47:05.028Z,0.00
2017-11-04T01:48:05.005Z,0.00
2017-11-04T01:49:04.980Z,0.00
2017-11-04T01:50:04.946Z,0.00
2017-11-04T01:51:05.274Z,0.00
2017-11-04T01:52:04.893Z,0.00
2017-11-04T01:53:04.864Z,0.00
2017-11-04T01:54:04.835Z,0.00
2017-11-04T01:55:04.817Z,0.00
2017-11-04T01:56:04.793Z,0.00
2017-11-04T01:57:05.015Z,0.00
2017-11-04T01:58:04.726Z,0.00
2017-11-04T01:59:04.701Z,0.00
2017-11-04T02:00:04.673Z,0.00
2017-11-04T02:01:04.644Z,0.00
2017-11-04T02:02:04.923Z,0.00
2017-11-04T02:03:04.588Z,0.00
2017-11-04T02:04:04.568Z,0.00
2017-11-04T02:05:04.537Z,0.00
2017-11-04T02:06:04.507Z,0.00
2017-11-04T02:07:04.484Z,0.00
2017-11-04T02:08:04.456Z,0.00
2017-11-04T02:09:04.427Z,0.00
2017-11-04T02:10:04.397Z,0.00
2017-11-04T02:11:04.371Z,0.00
2017-11-04T02:12:04.344Z,0.00
2017-11-04T02:13:04.321Z,0.00
2017-11-04T02:14:04.297Z,0.00
2017-11-04T02:15:04.264Z,0.00
2017-11-04T02:16:04.236Z,0.00
2017-11-04T02:17:04.208Z,0.00
2017-11-04T02:18:04.175Z,0.00
2017-11-04T02:19:04.150Z,0.00
2017-11-04T02:20:04.381Z,0.00
2017-11-04T02:21:04.094Z,0.00
2017-11-04T02:22:04.068Z,0.00
2017-11-04T02:23:04.046Z,0.00
2017-11-04T02:24:04.015Z,0.00
2017-11-04T02:25:03.989Z,0.00
2017-11-04T02:26:03.956Z,0.00
2017-11-04T02:27:03.931Z,0.00
2017-11-04T02:28:03.900Z,0.00
2017-11-04T02:29:03.878Z,0.00
2017-11-04T02:30:03.848Z,0.00
2017-11-04T02:31:03.822Z,0.00
2017-11-04T02:32:04.095Z,0.00
2017-11-04T02:33:03.764Z,0.00
2017-11-04T02:34:03.737Z,0.00
2017-11-04T02:35:03.710Z,0.00
2017-11-04T02:36:03.680Z,0.00
2017-11-04T02:37:03.653Z,0.00
2017-11-04T02:38:04.282Z,0.00
2017-11-04T02:39:03.600Z,0.00
2017-11-04T02:40:03.570Z,0.00
2017-11-04T02:41:03.537Z,0.00
2017-11-04T02:42:03.514Z,0.00
2017-11-04T02:43:03.485Z,0.00
2017-11-04T02:44:03.463Z,0.00
2017-11-04T02:45:03.429Z,0.00
2017-11-04T02:46:03.409Z,0.00
2017-11-04T02:47:03.375Z,0.00
2017-11-04T02:48:03.369Z,0.00
2017-11-04T02:49:03.322Z,0.00
2017-11-04T02:50:03.291Z,0.00
2017-11-04T02:51:03.262Z,0.00
2017-11-04T02:52:03.241Z,0.00
2017-11-04T02:53:03.208Z,0.00
2017-11-04T02:54:03.182Z,0.00
2017-11-04T02:55:03.161Z,0.00
2017-11-04T02:56:03.132Z,0.00
2017-11-04T02:57:03.099Z,0.00
2017-11-04T02:58:03.065Z,0.00
2017-11-04T02:59:03.046Z,0.00
2017-11-04T03:00:03.019Z,0.00
2017-11-04T03:01:03.336Z,0.00
2017-11-04T03:02:02.957Z,0.00
2017-11-04T03:03:02.935Z,0.00
2017-11-04T03:04:02.900Z,0.00
2017-11-04T03:05:02.874Z,0.00
2017-11-04T03:06:02.848Z,0.00
2017-11-04T03:07:03.069Z,0.00
2017-11-04T03:08:02.791Z,0.00
2017-11-04T03:09:02.763Z,0.00
2017-11-04T03:10:02.739Z,0.00
2017-11-04T03:11:02.711Z,0.00
2017-11-04T03:12:02.679Z,0.00
2017-11-04T03:13:02.655Z,0.00
2017-11-04T03:14:02.625Z,0.00
2017-11-04T03:15:02.599Z,0.00
2017-11-04T03:16:02.572Z,0.00
2017-11-04T03:17:02.542Z,0.00
2017-11-04T03:18:02.511Z,0.00
2017-11-04T03:19:02.488Z,0.00
2017-11-04T03:20:02.451Z,0.00
2017-11-04T03:21:02.429Z,0.00
2017-11-04T03:22:02.399Z,0.00
2017-11-04T03:23:02.371Z,0.00
2017-11-04T03:24:02.346Z,0.00
2017-11-04T03:25:02.572Z,0.00
2017-11-04T03:26:02.288Z,0.00
2017-11-04T03:27:02.256Z,0.00
2017-11-04T03:28:02.232Z,0.00
2017-11-04T03:29:02.207Z,0.00
2017-11-04T03:30:02.177Z,0.00
2017-11-04T03:31:02.152Z,0.00
2017-11-04T03:32:02.117Z,0.00
2017-11-04T03:33:02.092Z,0.00
2017-11-04T03:34:02.062Z,0.00
2017-11-04T03:35:02.043Z,0.00
2017-11-04T03:36:03.209Z,0.00
2017-11-04T03:37:01.975Z,0.00
2017-11-04T03:38:01.954Z,0.00
2017-11-04T03:39:01.922Z,0.00
2017-11-04T03:40:01.892Z,0.00
2017-11-04T03:41:01.863Z,0.00
2017-11-04T03:42:02.186Z,0.00
2017-11-04T03:43:01.818Z,0.00
2017-11-04T03:44:01.797Z,0.00
2017-11-04T03:45:01.754Z,0.00
2017-11-04T03:46:01.729Z,0.00
2017-11-04T03:47:01.700Z,0.00
2017-11-04T03:48:01.966Z,0.00
2017-11-04T03:49:01.648Z,0.00
2017-11-04T03:50:01.616Z,0.00
2017-11-04T03:51:01.584Z,0.00
2017-11-04T03:52:01.553Z,0.00
2017-11-04T03:53:01.537Z,0.00
2017-11-04T03:54:01.757Z,0.00
2017-11-04T03:55:01.477Z,0.00
2017-11-04T03:56:01.445Z,0.00
2017-11-04T03:57:01.423Z,0.00
2017-11-04T03:58:01.390Z,0.00
2017-11-04T03:59:01.366Z,0.00
2017-11-04T04:00:01.644Z,0.00
2017-11-04T04:01:01.304Z,0.00
2017-11-04T04:02:01.272Z,0.00
2017-11-04T04:03:01.258Z,0.00
2017-11-04T04:04:01.222Z,0.00
2017-11-04T04:05:01.191Z,0.00
2017-11-04T04:06:01.167Z,0.00
2017-11-04T04:07:01.137Z,0.00
2017-11-04T04:08:01.108Z,0.00
2017-11-04T04:09:01.075Z,0.00
2017-11-04T04:10:01.052Z,0.00
2017-11-04T04:11:01.021Z,0.00
2017-11-04T04:12:01.250Z,0.00
2017-11-04T04:13:00.970Z,0.00
2017-11-04T04:14:00.937Z,0.00
2017-11-04T04:15:00.911Z,0.00
2017-11-04T04:16:00.879Z,0.00
2017-11-04T04:17:00.872Z,0.00
2017-11-04T04:18:01.123Z,0.00
2017-11-04T04:19:00.802Z,0.00
2017-11-04T04:20:00.769Z,0.00
2017-11-04T04:21:00.750Z,0.00
2017-11-04T04:22:00.719Z,0.00
2017-11-04T04:23:00.686Z,0.00
2017-11-04T04:24:00.959Z,0.00
2017-11-04T04:25:00.631Z,0.00
2017-11-04T04:26:00.600Z,0.00
2017-11-04T04:27:00.571Z,0.00
2017-11-04T04:28:00.543Z,0.00
2017-11-04T04:29:00.517Z,0.00
2017-11-04T04:30:00.741Z,0.00
2017-11-04T04:31:00.462Z,0.00
2017-11-04T04:32:00.431Z,0.00
2017-11-04T04:33:00.404Z,0.00
2017-11-04T04:34:00.373Z,0.00
2017-11-04T04:35:00.348Z,0.00
2017-11-04T04:36:00.323Z,0.00
2017-11-04T04:37:00.292Z,0.00
2017-11-04T04:38:00.261Z,0.00
2017-11-04T04:39:00.237Z,0.00
2017-11-04T04:40:00.208Z,0.00
2017-11-04T04:41:01.129Z,0.00
2017-11-04T04:42:00.151Z,0.00
2017-11-04T04:43:00.122Z,0.00
2017-11-04T04:44:00.098Z,0.00
2017-11-04T04:45:00.073Z,0.00
2017-11-04T04:46:00.041Z,0.00
2017-11-04T04:47:00.006Z,0.00
2017-11-04T04:47:59.982Z,0.00
2017-11-04T04:48:59.953Z,0.00
2017-11-04T04:49:59.927Z,0.00
2017-11-04T04:50:59.893Z,0.00
2017-11-04T04:51:59.869Z,0.00
2017-11-04T04:52:59.845Z,0.00
2017-11-04T04:53:59.813Z,0.00
2017-11-04T04:54:59.788Z,0.00
2017-11-04T04:55:59.755Z,0.00
2017-11-04T04:56:59.734Z,0.00
2017-11-04T04:57:59.697Z,0.00
2017-11-04T04:58:59.673Z,0.00
2017-11-04T04:59:59.653Z,0.00
2017-11-04T05:00:59.613Z,0.00
2017-11-04T05:01:59.598Z,0.00
2017-11-04T05:02:59.563Z,0.00
2017-11-04T05:03:59.531Z,0.00
2017-11-04T05:04:59.802Z,0.00
2017-11-04T05:05:59.475Z,0.00
2017-11-04T05:06:59.455Z,0.00
2017-11-04T05:07:59.424Z,0.00
2017-11-04T05:08:59.390Z,0.00
2017-11-04T05:09:59.363Z,0.00
2017-11-04T05:10:59.342Z,0.00
2017-11-04T05:11:59.302Z,0.00
2017-11-04T05:12:59.275Z,0.00
2017-11-04T05:13:59.252Z,0.00
2017-11-04T05:14:59.222Z,0.00
2017-11-04T05:15:59.194Z,0.00
2017-11-04T05:16:59.165Z,0.00
2017-11-04T05:17:59.134Z,0.00
2017-11-04T05:18:59.113Z,0.00
2017-11-04T05:19:59.078Z,0.00
2017-11-04T05:20:59.054Z,0.00
2017-11-04T05:21:59.032Z,0.00
2017-11-04T05:22:58.998Z,0.00
2017-11-04T05:23:58.967Z,0.00
2017-11-04T05:24:58.948Z,0.00
2017-11-04T05:25:58.916Z,0.00
2017-11-04T05:26:58.882Z,0.00
2017-11-04T05:27:58.860Z,0.00
2017-11-04T05:28:58.827Z,0.00
2017-11-04T05:29:58.798Z,0.00
2017-11-04T05:30:58.775Z,0.00
2017-11-04T05:31:58.742Z,0.00
2017-11-04T05:32:58.715Z,0.00
2017-11-04T05:33:58.935Z,0.00
2017-11-04T05:34:58.661Z,0.00
2017-11-04T05:35:58.635Z,0.00
2017-11-04T05:36:58.611Z,0.00
2017-11-04T05:37:58.570Z,0.00
2017-11-04T05:38:58.547Z,0.00
2017-11-04T05:39:58.517Z,0.00
2017-11-04T05:40:58.489Z,0.00
2017-11-04T05:41:58.459Z,0.00
2017-11-04T05:42:58.436Z,0.00
2017-11-04T05:43:58.414Z,4.00
2017-11-04T05:44:58.373Z,4.00
2017-11-04T05:45:58.646Z,0.00
2017-11-04T05:46:58.320Z,0.00
2017-11-04T05:47:58.293Z,4.00
2017-11-04T05:48:58.269Z,4.00
2017-11-04T05:49:58.234Z,0.00
2017-11-04T05:50:58.460Z,4.00
2017-11-04T05:51:58.180Z,4.00
2017-11-04T05:52:58.153Z,4.00
2017-11-04T05:53:58.125Z,4.00
2017-11-04T05:54:58.098Z,8.00
2017-11-04T05:55:58.068Z,8.00
2017-11-04T05:56:58.046Z,12.00
2017-11-04T05:57:58.013Z,12.00
2017-11-04T05:58:57.990Z,12.00
2017-11-04T05:59:57.959Z,16.00
2017-11-04T06:00:57.922Z,20.00
2017-11-04T06:01:57.904Z,20.00
2017-11-04T06:02:57.874Z,28.00
2017-11-04T06:03:57.842Z,32.00
2017-11-04T06:04:57.813Z,36.00
2017-11-04T06:05:57.788Z,40.00
2017-11-04T06:06:57.762Z,48.00
2017-11-04T06:07:57.738Z,56.00
2017-11-04T06:08:57.697Z,68.00
2017-11-04T06:09:57.673Z,76.00
2017-11-04T06:10:57.653Z,88.00
2017-11-04T06:11:57.625Z,104.00
2017-11-04T06:12:57.590Z,116.00
2017-11-04T06:13:57.559Z,136.00
2017-11-04T06:14:57.778Z,148.00
2017-11-04T06:15:57.502Z,164.00
2017-11-04T06:16:57.509Z,188.00
2017-11-04T06:17:57.452Z,204.00
2017-11-04T06:18:57.417Z,228.00
2017-11-04T06:19:57.404Z,248.00
2017-11-04T06:20:57.664Z,272.00
2017-11-04T06:21:57.337Z,296.00
2017-11-04T06:22:57.302Z,324.00
2017-11-04T06:23:57.276Z,356.00
2017-11-04T06:24:57.251Z,384.00
2017-11-04T06:25:57.218Z,416.00
2017-11-04T06:26:57.446Z,448.00
2017-11-04T06:27:57.163Z,492.00
2017-11-04T06:28:57.138Z,532.00
2017-11-04T06:29:57.111Z,580.00
2017-11-04T06:30:57.088Z,632.00
2017-11-04T06:31:57.047Z,688.00
2017-11-04T06:32:57.028Z,740.00
2017-11-04T06:33:56.995Z,788.00
2017-11-04T06:34:56.962Z,864.00
2017-11-04T06:35:56.947Z,904.00
2017-11-04T06:36:56.906Z,964.00
2017-11-04T06:37:56.880Z,1020.00
2017-11-04T06:38:57.456Z,1112.00
2017-11-04T06:39:56.830Z,1160.00
2017-11-04T06:40:56.809Z,1248.00
2017-11-04T06:41:56.772Z,1364.00
2017-11-04T06:42:56.740Z,1412.00
2017-11-04T06:43:56.713Z,1540.00
2017-11-04T06:44:56.685Z,1604.00
2017-11-04T06:45:56.660Z,1664.00
2017-11-04T06:46:56.626Z,1804.00
2017-11-04T06:47:56.599Z,1872.00
2017-11-04T06:48:56.570Z,1952.00
2017-11-04T06:49:56.539Z,2036.00
2017-11-04T06:50:56.510Z,2168.00
2017-11-04T06:51:56.491Z,2232.00
2017-11-04T06:52:56.456Z,2440.00
2017-11-04T06:53:56.429Z,2548.00
2017-11-04T06:54:56.400Z,2700.00
2017-11-04T06:55:56.375Z,2864.00
2017-11-04T06:56:56.346Z,3028.00
2017-11-04T06:57:56.313Z,3172.00
2017-11-04T06:58:56.290Z,3304.00
2017-11-04T06:59:56.271Z,3436.00
2017-11-04T07:00:56.234Z,3568.00
2017-11-04T07:01:56.453Z,3640.00
2017-11-04T07:02:56.187Z,3672.00
2017-11-04T07:03:56.152Z,3788.00
2017-11-04T07:04:56.121Z,3800.00
2017-11-04T07:05:56.094Z,3844.00
2017-11-04T07:06:56.066Z,3820.00
2017-11-04T07:07:56.035Z,3788.00
2017-11-04T07:08:56.009Z,3836.00
2017-11-04T07:09:55.997Z,4000.00
2017-11-04T07:10:55.958Z,4060.00
2017-11-04T07:11:55.927Z,4296.00
2017-11-04T07:12:55.900Z,4456.00
2017-11-04T07:13:55.872Z,4644.00
2017-11-04T07:14:55.845Z,4868.00
2017-11-04T07:15:55.819Z,5056.00
2017-11-04T07:16:55.786Z,5244.00
2017-11-04T07:17:55.759Z,5436.00
2017-11-04T07:18:55.732Z,5928.00
2017-11-04T07:19:55.961Z,5992.00
2017-11-04T07:20:55.674Z,5984.00
2017-11-04T07:21:55.650Z,6348.00
2017-11-04T07:22:55.624Z,6516.00
2017-11-04T07:23:55.594Z,6344.00
2017-11-04T07:24:55.566Z,6468.00
2017-11-04T07:25:55.538Z,6192.00
2017-11-04T07:26:55.513Z,6004.00
2017-11-04T07:27:55.483Z,5984.00
2017-11-04T07:28:55.454Z,5920.00
2017-11-04T07:29:55.432Z,5840.00
2017-11-04T07:30:55.399Z,5784.00
2017-11-04T07:31:55.377Z,5740.00
2017-11-04T07:32:55.344Z,5908.00
2017-11-04T07:33:55.314Z,5816.00
2017-11-04T07:34:55.293Z,5880.00
2017-11-04T07:35:55.264Z,6028.00
2017-11-04T07:36:55.242Z,5940.00
2017-11-04T07:37:55.204Z,5864.00
2017-11-04T07:38:55.177Z,6256.00
2017-11-04T07:39:55.148Z,6252.00
2017-11-04T07:40:55.124Z,6320.00
2017-11-04T07:41:55.097Z,7000.00
2017-11-04T07:42:55.069Z,7000.00
2017-11-04T07:43:55.340Z,6884.00
2017-11-04T07:44:55.011Z,6820.00
2017-11-04T07:45:54.990Z,7240.00
2017-11-04T07:46:54.958Z,7468.00
2017-11-04T07:47:54.932Z,7532.00
2017-11-04T07:48:54.906Z,7476.00
2017-11-04T07:49:54.886Z,7460.00
2017-11-04T07:50:54.850Z,7732.00
2017-11-04T07:51:54.826Z,7964.00
2017-11-04T07:52:54.819Z,8380.00
2017-11-04T07:53:54.773Z,8332.00
2017-11-04T07:54:54.992Z,8412.00
2017-11-04T07:55:54.715Z,8276.00
2017-11-04T07:56:54.685Z,8256.00
2017-11-04T07:57:54.665Z,8188.00
2017-11-04T07:58:54.629Z,8156.00
2017-11-04T07:59:54.614Z,8100.00
2017-11-04T08:00:54.574Z,8100.00
2017-11-04T08:01:54.546Z,8140.00
2017-11-04T08:02:54.526Z,8224.00
2017-11-04T08:03:54.495Z,8404.00
2017-11-04T08:04:54.466Z,8492.00
2017-11-04T08:05:54.440Z,8676.00
2017-11-04T08:06:54.714Z,8724.00
2017-11-04T08:07:54.384Z,8600.00
2017-11-04T08:08:54.360Z,9256.00
2017-11-04T08:09:54.326Z,9100.00
2017-11-04T08:10:54.306Z,8788.00
2017-11-04T08:11:54.280Z,8888.00
2017-11-04T08:12:54.249Z,8788.00
2017-11-04T08:13:54.225Z,8904.00
2017-11-04T08:14:54.200Z,9212.00
2017-11-04T08:15:54.173Z,9416.00
2017-11-04T08:16:54.142Z,9656.00
2017-11-04T08:17:54.113Z,9964.00
2017-11-04T08:18:54.087Z,10176.00
2017-11-04T08:19:54.061Z,10376.00
2017-11-04T08:20:54.032Z,10704.00
2017-11-04T08:21:54.005Z,10748.00
2017-11-04T08:22:53.981Z,10840.00
2017-11-04T08:23:53.954Z,10884.00
2017-11-04T08:24:53.923Z,10988.00
2017-11-04T08:25:53.902Z,11096.00
2017-11-04T08:26:53.872Z,11180.00
2017-11-04T08:27:53.842Z,11336.00
2017-11-04T08:28:53.828Z,11496.00
2017-11-04T08:29:54.035Z,11604.00
2017-11-04T08:30:53.764Z,11884.00
2017-11-04T08:31:53.735Z,12084.00
2017-11-04T08:32:53.702Z,12216.00
2017-11-04T08:33:53.682Z,12468.00
2017-11-04T08:34:53.654Z,12604.00
2017-11-04T08:35:53.872Z,12788.00
2017-11-04T08:36:53.875Z,12768.00
2017-11-04T08:37:53.573Z,12664.00
2017-11-04T08:38:53.545Z,12536.00
2017-11-04T08:39:53.521Z,12504.00
2017-11-04T08:40:53.494Z,12456.00
2017-11-04T08:41:53.771Z,12380.00
2017-11-04T08:42:53.441Z,12384.00
2017-11-04T08:43:53.414Z,12296.00
2017-11-04T08:44:53.381Z,12232.00
2017-11-04T08:45:53.357Z,12260.00
2017-11-04T08:46:53.331Z,12272.00
2017-11-04T08:47:53.309Z,12304.00
2017-11-04T08:48:53.277Z,12380.00
2017-11-04T08:49:53.252Z,12404.00
2017-11-04T08:50:53.222Z,12368.00
2017-11-04T08:51:53.194Z,12372.00
2017-11-04T08:52:53.174Z,12328.00
2017-11-04T08:53:53.396Z,12344.00
2017-11-04T08:54:53.124Z,12540.00
2017-11-04T08:55:53.093Z,12340.00
2017-11-04T08:56:53.060Z,12308.00
2017-11-04T08:57:53.040Z,12280.00
2017-11-04T08:58:53.008Z,12440.00
2017-11-04T08:59:52.986Z,12256.00
2017-11-04T09:00:52.955Z,12332.00
2017-11-04T09:01:52.928Z,12232.00
2017-11-04T09:02:52.907Z,12124.00
2017-11-04T09:03:52.882Z,12048.00
2017-11-04T09:04:52.849Z,11980.00
2017-11-04T09:05:53.071Z,11940.00
2017-11-04T09:06:52.800Z,11980.00
2017-11-04T09:07:52.778Z,12032.00
2017-11-04T09:08:52.749Z,12084.00
2017-11-04T09:09:52.727Z,12220.00
2017-11-04T09:10:52.694Z,12420.00
2017-11-04T09:11:52.671Z,12628.00
2017-11-04T09:12:52.651Z,12856.00
2017-11-04T09:13:52.615Z,13052.00
2017-11-04T09:14:52.593Z,13216.00
2017-11-04T09:15:52.559Z,13320.00
2017-11-04T09:16:52.533Z,13404.00
2017-11-04T09:17:52.509Z,13480.00
2017-11-04T09:18:52.479Z,13552.00
2017-11-04T09:19:52.465Z,13740.00
2017-11-04T09:20:52.430Z,13900.00
2017-11-04T09:21:52.406Z,14184.00
2017-11-04T09:22:52.380Z,14480.00
2017-11-04T09:23:52.353Z,14900.00
2017-11-04T09:24:52.322Z,15340.00
2017-11-04T09:25:52.302Z,15692.00
2017-11-04T09:26:52.274Z,16008.00
2017-11-04T09:27:52.248Z,16316.00
2017-11-04T09:28:52.220Z,16768.00
2017-11-04T09:29:52.191Z,17312.00
2017-11-04T09:30:52.166Z,17536.00
2017-11-04T09:31:52.143Z,17888.00
2017-11-04T09:32:52.120Z,18304.00
2017-11-04T09:33:52.098Z,18688.00
2017-11-04T09:34:52.365Z,18944.00
2017-11-04T09:35:52.041Z,19616.00
2017-11-04T09:36:52.021Z,20128.00
2017-11-04T09:37:51.984Z,21056.00
2017-11-04T09:38:51.965Z,22688.00
2017-11-04T09:39:51.936Z,23552.00
2017-11-04T09:40:51.907Z,24704.00
2017-11-04T09:41:51.884Z,24448.00
2017-11-04T09:42:51.864Z,23360.00
2017-11-04T09:43:51.837Z,22496.00
2017-11-04T09:44:51.812Z,21568.00
2017-11-04T09:45:51.786Z,21056.00
2017-11-04T09:46:51.758Z,21152.00
2017-11-04T09:47:51.742Z,21600.00
2017-11-04T09:48:51.704Z,21984.00
2017-11-04T09:49:51.690Z,21984.00
2017-11-04T09:50:51.655Z,22304.00
2017-11-04T09:51:51.634Z,22432.00
2017-11-04T09:52:51.608Z,23136.00
2017-11-04T09:53:51.581Z,23648.00
2017-11-04T09:54:51.554Z,24224.00
2017-11-04T09:55:51.532Z,23872.00
2017-11-04T09:56:51.520Z,24832.00
2017-11-04T09:57:51.786Z,24672.00
2017-11-04T09:58:51.457Z,22944.00
2017-11-04T09:59:51.430Z,22272.00
2017-11-04T10:00:51.421Z,22304.00
2017-11-04T10:01:51.390Z,22848.00
2017-11-04T10:02:51.360Z,23936.00
2017-11-04T10:03:51.335Z,24000.00
2017-11-04T10:04:51.307Z,26784.00
2017-11-04T10:05:51.285Z,26912.00
2017-11-04T10:06:51.266Z,27584.00
2017-11-04T10:07:51.237Z,23808.00
2017-11-04T10:08:51.211Z,23488.00
2017-11-04T10:09:51.458Z,23488.00
2017-11-04T10:10:51.177Z,22240.00
2017-11-04T10:11:51.144Z,22432.00
2017-11-04T10:12:51.114Z,23776.00
2017-11-04T10:13:51.096Z,22304.00
2017-11-04T10:14:51.076Z,21984.00
2017-11-04T10:15:51.049Z,22464.00
2017-11-04T10:16:51.016Z,22752.00
2017-11-04T10:17:50.997Z,22688.00
2017-11-04T10:18:50.972Z,21472.00
2017-11-04T10:19:50.949Z,22464.00
2017-11-04T10:20:50.921Z,22432.00
2017-11-04T10:21:50.898Z,23264.00
2017-11-04T10:22:50.879Z,23648.00
2017-11-04T10:23:50.852Z,24640.00
2017-11-04T10:24:50.827Z,24960.00
2017-11-04T10:25:50.800Z,24576.00
2017-11-04T10:26:50.778Z,24960.00
2017-11-04T10:27:50.754Z,25568.00
2017-11-04T10:28:50.725Z,28480.00
2017-11-04T10:29:50.701Z,28256.00
2017-11-04T10:30:50.679Z,30624.00
2017-11-04T10:31:50.650Z,30528.00
2017-11-04T10:32:50.630Z,28640.00
2017-11-04T10:33:50.859Z,26400.00
2017-11-04T10:34:50.580Z,27392.00
2017-11-04T10:35:50.562Z,29056.00
2017-11-04T10:36:50.538Z,32864.00
2017-11-04T10:37:50.520Z,33152.00
2017-11-04T10:38:50.513Z,31840.00
2017-11-04T10:39:50.469Z,36352.00
2017-11-04T10:40:50.445Z,36224.00
2017-11-04T10:41:50.424Z,35136.00
2017-11-04T10:42:50.395Z,31968.00
2017-11-04T10:43:50.381Z,29024.00
2017-11-04T10:44:50.359Z,28992.00
2017-11-04T10:45:50.326Z,27872.00
2017-11-04T10:46:50.303Z,33344.00
2017-11-04T10:47:50.279Z,33632.00
2017-11-04T10:48:50.257Z,31136.00
2017-11-04T10:49:50.233Z,36544.00
2017-11-04T10:50:50.215Z,34720.00
2017-11-04T10:51:50.188Z,26816.00
2017-11-04T10:52:50.173Z,23808.00
2017-11-04T10:53:50.148Z,24672.00
2017-11-04T10:54:50.122Z,27328.00
2017-11-04T10:55:50.097Z,23872.00
2017-11-04T10:56:50.325Z,22880.00
2017-11-04T10:57:50.055Z,22336.00
2017-11-04T10:58:50.033Z,22080.00
2017-11-04T10:59:50.004Z,22272.00
2017-11-04T11:00:49.988Z,22048.00
2017-11-04T11:01:49.965Z,22144.00
2017-11-04T11:02:50.189Z,22400.00
2017-11-04T11:03:49.918Z,22784.00
2017-11-04T11:04:49.900Z,23680.00
2017-11-04T11:05:49.871Z,24800.00
2017-11-04T11:06:49.849Z,24832.00
2017-11-04T11:07:49.826Z,24800.00
2017-11-04T11:08:50.107Z,25248.00
2017-11-04T11:09:49.783Z,25504.00
2017-11-04T11:10:49.755Z,25408.00
2017-11-04T11:11:49.731Z,25600.00
2017-11-04T11:12:49.711Z,25984.00
2017-11-04T11:13:49.686Z,26304.00
2017-11-04T11:14:49.660Z,26560.00
2017-11-04T11:15:49.641Z,26624.00
2017-11-04T11:16:49.618Z,26496.00
2017-11-04T11:17:49.596Z,26112.00
2017-11-04T11:18:49.575Z,25664.00
2017-11-04T11:19:49.544Z,25312.00
2017-11-04T11:20:49.525Z,24960.00
2017-11-04T11:21:49.509Z,24544.00
2017-11-04T11:22:49.477Z,24288.00
2017-11-04T11:23:49.456Z,24096.00
2017-11-04T11:24:49.434Z,24000.00
2017-11-04T11:25:49.412Z,23968.00
2017-11-04T11:26:49.394Z,23936.00
2017-11-04T11:27:49.365Z,23808.00
2017-11-04T11:28:49.341Z,23776.00
2017-11-04T11:29:49.321Z,23808.00
2017-11-04T11:30:49.300Z,24064.00
2017-11-04T11:31:49.269Z,24448.00
2017-11-04T11:32:49.252Z,24608.00
2017-11-04T11:33:49.224Z,24576.00
2017-11-04T11:34:49.208Z,24064.00
2017-11-04T11:35:49.184Z,23616.00
2017-11-04T11:36:49.160Z,23200.00
2017-11-04T11:37:49.384Z,22432.00
2017-11-04T11:38:49.111Z,21536.00
2017-11-04T11:39:49.090Z,20576.00
2017-11-04T11:40:49.066Z,19328.00
2017-11-04T11:41:49.039Z,17888.00
2017-11-04T11:42:49.019Z,16096.00
2017-11-04T11:43:48.996Z,14448.00
2017-11-04T11:44:48.974Z,13016.00
2017-11-04T11:45:48.946Z,12040.00
2017-11-04T11:46:48.928Z,11668.00
2017-11-04T11:47:48.902Z,12000.00
2017-11-04T11:48:48.885Z,13008.00
2017-11-04T11:49:48.861Z,14592.00
2017-11-04T11:50:48.834Z,16484.00
2017-11-04T11:51:48.807Z,18624.00
2017-11-04T11:52:48.790Z,20416.00
2017-11-04T11:53:48.769Z,21184.00
2017-11-04T11:54:48.743Z,21056.00
2017-11-04T11:55:48.720Z,22912.00
2017-11-04T11:56:48.692Z,21888.00
2017-11-04T11:57:48.668Z,22688.00
2017-11-04T11:58:48.641Z,22560.00
2017-11-04T11:59:48.621Z,23744.00
2017-11-04T12:00:48.601Z,22528.00
2017-11-04T12:01:48.575Z,23648.00
2017-11-04T12:02:48.543Z,25024.00
2017-11-04T12:03:48.529Z,35424.00
2017-11-04T12:04:48.497Z,25696.00
2017-11-04T12:05:48.473Z,25920.00
2017-11-04T12:06:48.448Z,26432.00
2017-11-04T12:07:48.432Z,36416.00
2017-11-04T12:08:48.408Z,38016.00
2017-11-04T12:09:48.385Z,29280.00
2017-11-04T12:10:48.370Z,25120.00
2017-11-04T12:11:48.336Z,27680.00
2017-11-04T12:12:48.315Z,25824.00
2017-11-04T12:13:48.289Z,36704.00
2017-11-04T12:14:48.267Z,36096.00
2017-11-04T12:15:48.252Z,28544.00
2017-11-04T12:16:48.227Z,33504.00
2017-11-04T12:17:48.207Z,27136.00
2017-11-04T12:18:48.181Z,20128.00
2017-11-04T12:19:48.152Z,18272.00
2017-11-04T12:20:48.132Z,16484.00
2017-11-04T12:21:48.112Z,15844.00
2017-11-04T12:22:48.094Z,15612.00
2017-11-04T12:23:48.062Z,15368.00
2017-11-04T12:24:48.292Z,15392.00
2017-11-04T12:25:48.019Z,15888.00
2017-11-04T12:26:47.996Z,16928.00
2017-11-04T12:27:47.978Z,15336.00
2017-11-04T12:28:47.954Z,15292.00
2017-11-04T12:29:47.929Z,15484.00
2017-11-04T12:30:47.905Z,15936.00
2017-11-04T12:31:47.884Z,17216.00